Time;durP1;ratioP1;P1;durP2;ratioP2;P2;SDS_P1;SDS_P2;PMS_P1;PMS_P2;Temp;Humidity;BMP_temperature;BMP_pressure;BME280_temperature;BME280_humidity;BME280_pressure;Samples;Min_cycle;Max_cycle;Signal;HPM_P1;HPM_P2
2023/10/04 00:01:00;;;;;;;6.40;1.90;;;14.70;99.90;;;;;;4448859;28;656652;-65
2023/10/04 00:03:48;;;;;;;5.53;2.40;;;14.70;99.90;;;;;;4432604;28;655864;-64
2023/10/04 00:06:35;;;;;;;3.93;2.50;;;14.60;99.90;;;;;;4455702;28;655969;-64
2023/10/04 00:09:24;;;;;;;6.67;2.70;;;14.50;99.90;;;;;;4453121;28;655627;-64
2023/10/04 00:12:11;;;;;;;4.93;2.50;;;14.40;99.90;;;;;;4447243;27;656088;-65
2023/10/04 00:14:58;;;;;;;8.37;3.00;;;14.30;99.90;;;;;;4425718;28;655621;-65
2023/10/04 00:17:45;;;;;;;6.00;2.77;;;14.20;99.90;;;;;;4447032;28;656254;-64
2023/10/04 00:20:33;;;;;;;6.40;2.43;;;14.30;99.90;;;;;;4440613;28;655730;-65
2023/10/04 00:23:20;;;;;;;4.93;2.40;;;14.30;99.90;;;;;;4449586;28;657040;-65
2023/10/04 00:26:10;;;;;;;6.30;2.50;;;14.30;99.90;;;;;;4431342;27;657314;-65
2023/10/04 00:28:57;;;;;;;6.47;2.57;;;14.40;99.90;;;;;;4433349;27;655480;-65
2023/10/04 00:31:47;;;;;;;4.33;2.47;;;14.40;99.90;;;;;;4451917;28;656664;-64
2023/10/04 00:34:34;;;;;;;5.67;2.50;;;14.50;99.90;;;;;;4430879;28;656565;-65
2023/10/04 00:37:21;;;;;;;10.70;3.70;;;14.50;99.90;;;;;;4447630;28;655660;-65
2023/10/04 00:40:12;;;;;;;9.17;4.50;;;14.40;99.90;;;;;;4428931;28;656840;-65
2023/10/04 00:43:13;;;;;;;12.10;5.50;;;14.40;99.90;;;;;;4416983;28;656428;-65
2023/10/04 00:46:00;;;;;;;11.53;5.30;;;14.40;99.90;;;;;;4405243;27;656690;-65
2023/10/04 00:48:49;;;;;;;11.37;5.33;;;14.40;99.90;;;;;;4442280;28;656106;-65
2023/10/04 00:51:36;;;;;;;15.40;5.20;;;14.30;99.90;;;;;;4445127;28;656249;-65
2023/10/04 00:54:24;;;;;;;10.80;4.80;;;14.30;99.90;;;;;;4425200;28;657395;-65
2023/10/04 00:57:12;;;;;;;8.60;4.10;;;14.20;99.90;;;;;;4450395;28;656480;-65
2023/10/04 01:00:03;;;;;;;11.33;4.30;;;14.30;99.90;;;;;;4426665;28;655692;-65
2023/10/04 01:02:51;;;;;;;5.87;2.67;;;14.20;99.90;;;;;;4426813;27;657835;-65
2023/10/04 01:05:45;;;;;;;8.27;4.07;;;14.20;99.90;;;;;;4428058;28;655505;-65
2023/10/04 01:08:34;;;;;;;7.93;3.63;;;14.20;99.90;;;;;;4422274;28;655798;-65
2023/10/04 01:11:22;;;;;;;7.47;3.27;;;14.20;99.90;;;;;;4450191;28;655111;-65
2023/10/04 01:14:09;;;;;;;6.90;3.07;;;14.20;99.90;;;;;;4432199;28;655408;-65
2023/10/04 01:16:58;;;;;;;6.15;3.10;;;14.30;99.90;;;;;;4447623;28;655762;-65
2023/10/04 01:19:45;;;;;;;8.53;2.83;;;14.20;99.90;;;;;;4436698;28;655900;-65
2023/10/04 01:22:34;;;;;;;5.77;2.20;;;14.30;99.90;;;;;;4433549;28;655677;-64
2023/10/04 01:25:21;;;;;;;7.80;3.00;;;14.20;99.90;;;;;;4450421;28;655640;-65
2023/10/04 01:28:12;;;;;;;7.97;2.63;;;14.10;99.90;;;;;;4433028;28;655773;-64
2023/10/04 01:31:00;;;;;;;8.77;2.37;;;14.10;99.90;;;;;;4431879;28;655446;-65
2023/10/04 01:33:48;;;;;;;5.07;2.40;;;14.00;99.90;;;;;;4430952;28;656213;-65
2023/10/04 01:36:37;;;;;;;5.03;2.20;;;14.00;99.90;;;;;;4448345;28;657243;-65
2023/10/04 01:39:30;;;;;;;5.90;2.17;;;13.90;99.90;;;;;;4436607;28;656342;-65
2023/10/04 01:42:17;;;;;;;6.37;2.53;;;14.00;99.90;;;;;;4445261;28;655701;-64
2023/10/04 01:45:05;;;;;;;7.50;2.53;;;13.90;99.90;;;;;;4459340;28;655339;-64
2023/10/04 01:47:53;;;;;;;6.07;2.30;;;13.80;99.90;;;;;;4433948;28;655354;-65
2023/10/04 01:50:40;;;;;;;7.13;2.60;;;13.80;99.90;;;;;;4457649;28;656478;-65
2023/10/04 01:53:29;;;;;;;4.67;2.07;;;13.70;99.90;;;;;;4454664;27;655762;-66
2023/10/04 01:56:17;;;;;;;8.40;2.33;;;13.70;99.90;;;;;;4459812;28;656606;-64
2023/10/04 01:59:05;;;;;;;4.93;1.60;;;13.70;99.90;;;;;;4430876;28;656286;-65
2023/10/04 02:01:56;;;;;;;5.37;1.97;;;13.70;99.90;;;;;;4426203;28;655312;-65
2023/10/04 02:04:51;;;;;;;4.60;2.07;;;13.60;99.90;;;;;;4425754;28;655595;-65
2023/10/04 02:07:39;;;;;;;4.43;1.93;;;13.70;99.90;;;;;;4425317;28;655452;-65
2023/10/04 02:10:28;;;;;;;4.50;1.93;;;13.70;99.90;;;;;;4453347;27;655316;-65
2023/10/04 02:13:17;;;;;;;6.07;2.60;;;13.70;99.90;;;;;;4439231;28;655599;-65
2023/10/04 02:16:08;;;;;;;6.03;1.90;;;13.60;99.90;;;;;;4426387;28;656644;-65
2023/10/04 02:18:56;;;;;;;5.33;2.27;;;13.60;99.90;;;;;;4438328;28;655128;-65
2023/10/04 02:21:44;;;;;;;6.90;2.33;;;13.60;99.90;;;;;;4430863;28;655974;-65
2023/10/04 02:24:31;;;;;;;2.73;1.60;;;13.60;99.90;;;;;;4451924;28;655375;-64
2023/10/04 02:27:18;;;;;;;2.80;1.23;;;13.60;99.90;;;;;;4443943;27;656094;-64
2023/10/04 02:30:13;;;;;;;4.57;2.00;;;13.50;99.90;;;;;;4452704;28;655118;-65
2023/10/04 02:33:01;;;;;;;3.60;2.43;;;13.40;99.90;;;;;;4429749;28;655979;-65
2023/10/04 02:35:48;;;;;;;4.70;2.00;;;13.40;99.90;;;;;;4439528;28;655655;-64
2023/10/04 02:38:36;;;;;;;2.60;1.53;;;13.40;99.90;;;;;;4458337;28;655615;-65
2023/10/04 02:41:26;;;;;;;3.53;1.67;;;13.50;99.90;;;;;;4441354;28;655778;-65
2023/10/04 02:44:17;;;;;;;3.57;1.70;;;13.50;99.90;;;;;;4437331;28;655935;-65
2023/10/04 02:47:07;;;;;;;3.07;1.90;;;13.50;99.90;;;;;;4429155;28;656016;-65
2023/10/04 02:49:55;;;;;;;5.00;1.90;;;13.40;99.90;;;;;;4432090;28;656231;-65
2023/10/04 02:52:42;;;;;;;3.77;1.90;;;13.40;99.90;;;;;;4456972;28;656794;-65
2023/10/04 02:55:31;;;;;;;4.57;2.40;;;13.40;99.90;;;;;;4427273;28;656532;-65
2023/10/04 02:58:19;;;;;;;5.97;2.50;;;13.50;99.90;;;;;;4442273;28;655940;-65
2023/10/04 03:01:08;;;;;;;3.80;2.33;;;13.40;99.90;;;;;;4450833;28;655751;-64
2023/10/04 03:03:58;;;;;;;4.77;2.63;;;13.30;99.90;;;;;;4428532;28;655892;-65
2023/10/04 03:06:45;;;;;;;6.53;2.40;;;13.30;99.90;;;;;;4429607;28;656007;-65
2023/10/04 03:09:33;;;;;;;4.20;2.53;;;13.20;99.90;;;;;;4429575;28;655820;-65
2023/10/04 03:12:21;;;;;;;7.97;2.23;;;13.10;99.90;;;;;;4459274;28;656217;-65
2023/10/04 03:15:11;;;;;;;4.10;2.17;;;13.20;99.90;;;;;;4423389;28;656506;-65
2023/10/04 03:17:59;;;;;;;5.60;2.60;;;13.10;99.90;;;;;;4431181;28;655664;-65
2023/10/04 03:21:01;;;;;;;4.97;2.47;;;13.20;99.90;;;;;;4460591;27;655818;-65
2023/10/04 03:23:49;;;;;;;5.07;2.30;;;13.20;99.90;;;;;;4402667;28;655939;-65
2023/10/04 03:26:36;;;;;;;6.67;2.00;;;13.10;99.90;;;;;;4459787;27;656036;-65
2023/10/04 03:29:24;;;;;;;4.67;1.93;;;13.00;99.90;;;;;;4430647;28;655758;-65
2023/10/04 03:32:12;;;;;;;5.57;2.43;;;13.00;99.90;;;;;;4459552;27;655111;-65
2023/10/04 03:35:00;;;;;;;6.10;2.93;;;13.10;99.90;;;;;;4442280;27;656102;-65
2023/10/04 03:37:54;;;;;;;6.83;2.60;;;13.00;99.90;;;;;;4439628;27;655559;-65
2023/10/04 03:40:41;;;;;;;6.27;2.90;;;13.00;99.90;;;;;;4437056;28;655602;-65
2023/10/04 03:43:29;;;;;;;5.20;2.07;;;13.00;99.90;;;;;;4427004;28;655680;-65
2023/10/04 03:46:19;;;;;;;4.37;2.40;;;12.90;99.90;;;;;;4456624;28;656021;-65
2023/10/04 03:49:06;;;;;;;7.03;2.13;;;12.90;99.90;;;;;;4422866;28;656094;-65
2023/10/04 03:51:54;;;;;;;5.03;2.63;;;12.90;99.90;;;;;;4427683;28;655510;-65
2023/10/04 03:54:45;;;;;;;4.80;2.10;;;12.80;99.90;;;;;;4457821;27;656230;-65
2023/10/04 03:57:33;;;;;;;4.43;2.37;;;12.80;99.90;;;;;;4433824;28;655589;-65
2023/10/04 04:00:22;;;;;;;4.73;2.53;;;12.60;99.90;;;;;;4449024;28;656205;-65
2023/10/04 04:03:10;;;;;;;6.60;2.77;;;12.50;99.90;;;;;;4428485;28;656339;-65
2023/10/04 04:05:58;;;;;;;9.50;3.17;;;12.50;99.90;;;;;;4453687;28;655483;-65
2023/10/04 04:08:46;;;;;;;5.07;2.63;;;12.40;99.90;;;;;;4448059;28;654929;-65
2023/10/04 04:11:35;;;;;;;7.63;3.23;;;12.30;99.90;;;;;;4436952;27;656428;-65
2023/10/04 04:14:23;;;;;;;8.67;3.17;;;12.40;99.90;;;;;;4432830;28;655469;-65
2023/10/04 04:17:10;;;;;;;5.80;3.30;;;12.40;99.90;;;;;;4446439;28;655884;-65
2023/10/04 04:19:57;;;;;;;6.43;3.40;;;12.40;99.90;;;;;;4448341;28;655717;-65
2023/10/04 04:22:47;;;;;;;6.87;3.13;;;12.30;99.90;;;;;;4454743;28;655453;-65
2023/10/04 04:25:34;;;;;;;9.83;2.77;;;12.30;99.90;;;;;;4431116;27;655888;-64
2023/10/04 04:28:24;;;;;;;6.50;2.77;;;12.30;99.90;;;;;;4457701;27;655244;-65
2023/10/04 04:31:14;;;;;;;5.10;2.73;;;12.30;99.90;;;;;;4429785;28;656255;-65
2023/10/04 04:34:03;;;;;;;11.37;3.27;;;12.20;99.90;;;;;;4425175;28;656007;-65
2023/10/04 04:36:51;;;;;;;6.97;2.23;;;12.20;99.90;;;;;;4435985;28;657294;-65
2023/10/04 04:39:40;;;;;;;6.20;2.97;;;12.10;99.90;;;;;;4430435;28;656622;-65
2023/10/04 04:42:35;;;;;;;8.80;2.80;;;12.00;99.90;;;;;;4440112;28;656158;-65
2023/10/04 04:45:25;;;;;;;8.77;2.90;;;12.10;99.90;;;;;;4417313;27;655510;-65
2023/10/04 04:48:15;;;;;;;13.43;3.00;;;12.10;99.90;;;;;;4432692;28;655626;-65
2023/10/04 04:51:08;;;;;;;7.90;2.93;;;12.00;99.90;;;;;;4451158;27;657989;-64
2023/10/04 04:53:56;;;;;;;7.80;2.70;;;12.00;99.90;;;;;;4425549;28;656532;-65
2023/10/04 04:56:43;;;;;;;5.23;2.00;;;12.00;99.90;;;;;;4430339;27;655688;-65
2023/10/04 04:59:31;;;;;;;5.10;2.47;;;12.00;99.90;;;;;;4456546;28;656206;-65
2023/10/04 05:02:20;;;;;;;7.67;2.37;;;11.90;99.90;;;;;;4436582;27;655490;-64
2023/10/04 05:05:11;;;;;;;12.60;2.63;;;11.80;99.90;;;;;;4454529;28;655293;-65
2023/10/04 05:07:59;;;;;;;8.33;2.97;;;11.70;99.90;;;;;;4419603;27;656344;-65
2023/10/04 05:10:49;;;;;;;6.90;3.00;;;11.70;99.90;;;;;;4451681;28;655793;-65
2023/10/04 05:13:36;;;;;;;9.00;2.70;;;11.80;99.90;;;;;;4431457;27;655657;-65
2023/10/04 05:16:25;;;;;;;7.07;3.03;;;11.60;99.90;;;;;;4433834;28;656323;-65
2023/10/04 05:19:13;;;;;;;14.10;2.70;;;11.60;99.90;;;;;;4453294;28;655375;-65
2023/10/04 05:22:00;;;;;;;9.50;2.80;;;11.70;99.90;;;;;;4433944;28;657041;-65
2023/10/04 05:24:48;;;;;;;6.63;2.40;;;11.60;99.90;;;;;;4430253;28;656380;-65
2023/10/04 05:27:36;;;;;;;9.97;2.97;;;11.60;99.90;;;;;;4455308;28;655688;-65
2023/10/04 05:30:23;;;;;;;5.27;2.10;;;11.60;99.90;;;;;;4433447;28;656470;-65
2023/10/04 05:33:13;;;;;;;6.30;2.80;;;11.60;99.90;;;;;;4454622;28;656284;-65
2023/10/04 05:36:02;;;;;;;9.20;3.13;;;11.50;99.90;;;;;;4429997;28;656361;-65
2023/10/04 05:38:50;;;;;;;8.43;2.73;;;11.50;99.90;;;;;;4434880;28;656317;-65
2023/10/04 05:41:37;;;;;;;9.33;2.47;;;11.40;99.90;;;;;;4454764;28;655340;-65
2023/10/04 05:44:25;;;;;;;8.73;2.40;;;11.50;99.90;;;;;;4450908;28;656482;-65
2023/10/04 05:47:13;;;;;;;7.00;2.50;;;11.60;99.90;;;;;;4440290;28;656191;-65
2023/10/04 05:50:00;;;;;;;8.73;2.53;;;11.60;99.90;;;;;;4454648;28;656045;-65
2023/10/04 05:52:49;;;;;;;9.03;2.47;;;11.70;99.90;;;;;;4438790;28;655215;-65
2023/10/04 05:55:37;;;;;;;7.23;2.50;;;11.70;99.90;;;;;;4450134;28;655590;-65
2023/10/04 05:58:25;;;;;;;7.70;2.10;;;11.80;99.90;;;;;;4430708;28;655527;-65
2023/10/04 06:01:16;;;;;;;6.23;2.03;;;11.90;99.90;;;;;;4444531;28;655940;-64
2023/10/04 06:04:05;;;;;;;8.47;2.50;;;11.70;99.90;;;;;;4427174;28;655718;-65
2023/10/04 06:06:52;;;;;;;4.10;1.90;;;11.80;99.90;;;;;;4428509;28;656394;-65
2023/10/04 06:09:42;;;;;;;6.53;2.40;;;11.90;99.90;;;;;;4453660;28;655018;-65
2023/10/04 06:12:29;;;;;;;6.57;2.40;;;11.90;99.90;;;;;;4426657;28;655608;-65
2023/10/04 06:15:16;;;;;;;7.30;2.87;;;11.80;99.90;;;;;;4447825;28;656181;-65
2023/10/04 06:18:05;;;;;;;6.13;2.57;;;11.90;99.90;;;;;;4435793;28;655270;-65
2023/10/04 06:20:52;;;;;;;7.10;2.97;;;11.90;99.90;;;;;;4461733;28;656358;-65
2023/10/04 06:23:40;;;;;;;9.90;2.50;;;11.90;99.90;;;;;;4456044;28;655941;-65
2023/10/04 06:26:29;;;;;;;7.73;2.50;;;11.90;99.90;;;;;;4454968;28;655596;-65
2023/10/04 06:29:16;;;;;;;6.03;2.10;;;12.00;99.90;;;;;;4457419;27;655544;-65
2023/10/04 06:32:04;;;;;;;5.80;1.73;;;12.00;99.90;;;;;;4438362;27;656716;-65
2023/10/04 06:34:51;;;;;;;8.50;2.43;;;12.10;99.90;;;;;;4461259;27;655717;-65
2023/10/04 06:37:39;;;;;;;10.37;2.23;;;12.00;99.90;;;;;;4435609;27;655670;-65
2023/10/04 06:40:27;;;;;;;7.78;2.40;;;12.00;99.90;;;;;;4451147;27;657096;-65
2023/10/04 06:43:16;;;;;;;10.20;2.00;;;12.10;99.90;;;;;;4437711;27;656437;-65
2023/10/04 06:46:03;;;;;;;2.57;0.93;;;12.20;99.90;;;;;;4432689;27;656863;-65
2023/10/04 06:48:51;;;;;;;7.33;2.40;;;12.20;99.90;;;;;;4462200;27;656231;-65
2023/10/04 06:51:38;;;;;;;6.37;1.43;;;12.10;99.90;;;;;;4432067;27;656048;-65
2023/10/04 06:54:25;;;;;;;8.30;2.00;;;12.20;99.90;;;;;;4455752;27;657031;-65
2023/10/04 06:57:12;;;;;;;7.77;2.10;;;12.30;99.90;;;;;;4434472;27;655394;-66
2023/10/04 07:00:01;;;;;;;8.60;1.57;;;12.30;99.90;;;;;;4460308;27;656588;-65
2023/10/04 07:02:49;;;;;;;10.27;2.07;;;12.40;99.90;;;;;;4434647;27;655673;-65
2023/10/04 07:05:37;;;;;;;4.33;1.80;;;12.40;99.90;;;;;;4452481;27;656939;-65
2023/10/04 07:08:31;;;;;;;5.13;1.77;;;12.40;99.90;;;;;;4438274;27;655804;-65
2023/10/04 07:11:18;;;;;;;6.50;1.70;;;12.30;99.90;;;;;;4407096;27;655744;-65
2023/10/04 07:14:05;;;;;;;7.47;1.77;;;12.50;99.90;;;;;;4457625;27;656160;-65
2023/10/04 07:16:54;;;;;;;7.83;2.00;;;12.50;99.90;;;;;;4427957;27;658680;-65
2023/10/04 07:19:41;;;;;;;7.83;1.77;;;12.60;99.90;;;;;;4453948;27;655127;-65
2023/10/04 07:22:32;;;;;;;6.73;1.70;;;12.80;99.90;;;;;;4435005;27;655720;-65
2023/10/04 07:25:19;;;;;;;6.03;1.60;;;12.80;99.90;;;;;;4436642;27;656146;-65
2023/10/04 07:28:09;;;;;;;9.50;2.00;;;12.80;99.90;;;;;;4446704;28;656033;-65
2023/10/04 07:30:56;;;;;;;8.07;1.70;;;13.10;99.90;;;;;;4426239;27;656047;-65
2023/10/04 07:33:44;;;;;;;5.27;1.97;;;13.10;99.90;;;;;;4430643;27;656633;-65
2023/10/04 07:36:32;;;;;;;5.43;1.70;;;12.90;99.90;;;;;;4451936;28;655747;-65
2023/10/04 07:39:21;;;;;;;6.80;1.77;;;13.00;99.90;;;;;;4440078;27;656254;-64
2023/10/04 07:42:10;;;;;;;6.00;1.50;;;13.00;99.90;;;;;;4438291;27;656160;-65
2023/10/04 07:44:57;;;;;;;7.87;1.70;;;13.00;99.90;;;;;;4463084;27;654527;-65
2023/10/04 07:47:45;;;;;;;8.70;1.90;;;13.10;99.90;;;;;;4439568;27;656191;-65
2023/10/04 07:50:34;;;;;;;6.20;1.50;;;13.10;99.90;;;;;;4436039;27;655807;-66
2023/10/04 07:53:21;;;;;;;7.03;1.93;;;13.40;99.90;;;;;;4458991;27;655859;-65
2023/10/04 07:56:11;;;;;;;5.47;1.43;;;13.50;99.90;;;;;;4439997;27;654914;-65
2023/10/04 07:58:59;;;;;;;10.23;2.00;;;13.50;99.90;;;;;;4439886;27;655686;-65
2023/10/04 08:01:48;;;;;;;7.43;1.77;;;13.40;99.90;;;;;;4434883;27;656997;-65
2023/10/04 08:04:35;;;;;;;8.93;1.83;;;13.60;99.90;;;;;;4449909;27;657501;-65
2023/10/04 08:07:24;;;;;;;5.47;1.43;;;13.40;99.90;;;;;;4412264;28;657173;-65
2023/10/04 08:10:12;;;;;;;4.57;1.50;;;13.60;99.90;;;;;;4440428;28;656140;-65
2023/10/04 08:13:00;;;;;;;4.83;1.50;;;13.90;99.90;;;;;;4416368;28;657778;-65
2023/10/04 08:15:48;;;;;;;7.77;1.90;;;13.70;99.90;;;;;;4417862;28;657137;-65
2023/10/04 08:18:35;;;;;;;3.37;1.50;;;13.70;99.90;;;;;;4434570;28;657119;-65
2023/10/04 08:21:23;;;;;;;6.93;1.90;;;13.60;99.90;;;;;;4417992;28;656668;-65
2023/10/04 08:24:12;;;;;;;3.53;1.10;;;13.80;99.90;;;;;;4436421;28;656988;-65
2023/10/04 08:27:01;;;;;;;8.70;1.80;;;13.60;99.90;;;;;;4412219;28;656891;-65
2023/10/04 08:29:48;;;;;;;7.93;1.70;;;13.70;99.90;;;;;;4422162;28;656982;-65
2023/10/04 08:32:35;;;;;;;4.97;1.20;;;14.30;99.90;;;;;;4443937;28;657240;-65
2023/10/04 08:35:24;;;;;;;5.33;1.60;;;14.40;99.90;;;;;;4416286;28;658188;-65
2023/10/04 08:38:11;;;;;;;4.63;1.93;;;14.80;99.90;;;;;;4440462;28;656203;-65
2023/10/04 08:41:01;;;;;;;5.60;1.33;;;14.20;99.90;;;;;;4418639;28;656973;-65
2023/10/04 08:43:49;;;;;;;5.87;1.90;;;14.70;99.90;;;;;;4413686;28;656815;-66
2023/10/04 08:46:37;;;;;;;4.30;1.50;;;15.50;99.90;;;;;;4426581;28;656807;-65
2023/10/04 08:49:25;;;;;;;9.80;1.67;;;15.90;99.90;;;;;;4414802;28;657734;-65
2023/10/04 08:52:17;;;;;;;4.47;1.50;;;15.40;99.90;;;;;;4421820;28;656855;-65
2023/10/04 08:55:07;;;;;;;8.23;1.90;;;14.80;99.90;;;;;;4417108;28;657795;-65
2023/10/04 08:57:55;;;;;;;4.03;1.40;;;15.20;99.90;;;;;;4423797;28;657760;-65
2023/10/04 09:00:44;;;;;;;6.57;1.87;;;15.20;99.90;;;;;;4415754;28;656604;-65
2023/10/04 09:03:33;;;;;;;3.07;1.10;;;15.50;99.90;;;;;;4434529;28;656688;-65
2023/10/04 09:06:20;;;;;;;5.87;1.80;;;15.80;99.90;;;;;;4427787;27;657974;-65
2023/10/04 09:09:11;;;;;;;7.27;1.80;;;15.30;99.90;;;;;;4436244;27;656600;-65
2023/10/04 09:12:00;;;;;;;5.05;1.58;;;15.40;99.90;;;;;;4425757;28;657603;-65
2023/10/04 09:14:50;;;;;;;2.97;1.50;;;15.30;99.90;;;;;;4450085;28;657068;-65
2023/10/04 09:17:46;;;;;;;4.93;1.53;;;15.20;99.90;;;;;;4420860;28;656589;-65
2023/10/04 09:20:35;;;;;;;6.10;1.50;;;15.20;99.90;;;;;;4415224;28;656927;-66
2023/10/04 09:23:22;;;;;;;5.10;1.57;;;15.80;99.90;;;;;;4455664;28;656850;-65
2023/10/04 09:26:15;;;;;;;3.90;1.47;;;16.40;99.90;;;;;;4433474;28;657765;-65
2023/10/04 09:29:03;;;;;;;5.13;1.90;;;16.30;99.90;;;;;;4409060;28;656509;-65
2023/10/04 09:31:53;;;;;;;5.33;1.80;;;16.40;99.90;;;;;;4449995;28;658183;-65
2023/10/04 09:34:40;;;;;;;5.22;1.63;;;15.90;99.90;;;;;;4436599;28;657794;-65
2023/10/04 09:37:28;;;;;;;7.33;1.47;;;16.00;99.90;;;;;;4432295;28;656563;-65
2023/10/04 09:40:16;;;;;;;7.97;1.33;;;16.10;99.90;;;;;;4457252;28;657339;-65
2023/10/04 09:43:03;;;;;;;1.60;1.10;;;15.80;99.90;;;;;;4437779;28;656613;-65
2023/10/04 09:45:56;;;;;;;9.10;1.80;;;15.80;99.90;;;;;;4454860;28;657498;-65
2023/10/04 09:48:45;;;;;;;6.43;1.57;;;15.60;99.90;;;;;;4407996;28;657243;-65
2023/10/04 09:51:32;;;;;;;4.33;1.20;;;15.70;99.90;;;;;;4452221;28;656621;-65
2023/10/04 09:54:20;;;;;;;3.10;1.33;;;15.90;99.90;;;;;;4455812;28;658652;-65
2023/10/04 09:57:09;;;;;;;3.87;1.13;;;16.00;99.90;;;;;;4438840;28;656354;-65
2023/10/04 09:59:57;;;;;;;4.80;1.63;;;15.40;99.90;;;;;;4453969;27;656078;-65
2023/10/04 10:02:47;;;;;;;6.63;1.33;;;15.40;99.90;;;;;;4437707;27;656785;-65
2023/10/04 10:05:36;;;;;;;4.03;1.10;;;15.80;99.90;;;;;;4433547;27;657879;-65
2023/10/04 10:08:25;;;;;;;3.60;1.30;;;15.90;99.90;;;;;;4430104;28;656697;-65
2023/10/04 10:11:12;;;;;;;6.40;1.40;;;16.40;99.90;;;;;;4446789;27;657019;-65
2023/10/04 10:14:00;;;;;;;3.60;1.13;;;17.10;99.90;;;;;;4451350;28;656605;-65
2023/10/04 10:16:52;;;;;;;4.70;1.50;;;17.10;99.90;;;;;;4448699;28;656650;-65
2023/10/04 10:19:39;;;;;;;5.77;1.67;;;17.40;99.90;;;;;;4444328;27;656288;-65
2023/10/04 10:22:27;;;;;;;7.63;1.60;;;17.60;99.90;;;;;;4452168;28;656431;-65
2023/10/04 10:25:15;;;;;;;6.47;1.77;;;17.80;99.90;;;;;;4433047;28;657707;-65
2023/10/04 10:28:03;;;;;;;8.27;1.70;;;17.10;99.90;;;;;;4445309;28;656448;-65
2023/10/04 10:30:59;;;;;;;3.90;1.60;;;16.80;99.90;;;;;;4446336;28;657566;-65
2023/10/04 10:33:47;;;;;;;2.93;1.27;;;16.20;99.90;;;;;;4433096;28;656529;-65
2023/10/04 10:36:34;;;;;;;4.80;1.50;;;15.60;99.90;;;;;;4424369;28;657081;-65
2023/10/04 10:39:24;;;;;;;3.87;1.67;;;15.70;99.90;;;;;;4449684;28;658362;-65
2023/10/04 10:42:11;;;;;;;8.60;1.57;;;16.30;99.90;;;;;;4428919;28;656890;-65
2023/10/04 10:45:26;;;;;;;2.80;1.30;;;17.30;99.90;;;;;;4432735;27;657049;-65
2023/10/04 10:48:14;;;;;;;3.77;1.27;;;17.10;99.90;;;;;;4410811;28;656580;-65
2023/10/04 10:51:01;;;;;;;7.27;1.20;;;16.20;99.90;;;;;;4455852;28;656538;-65
2023/10/04 10:53:48;;;;;;;3.97;1.40;;;16.70;99.90;;;;;;4428831;28;657016;-65
2023/10/04 10:56:37;;;;;;;6.27;1.80;;;17.00;99.90;;;;;;4450793;28;657088;-65
2023/10/04 10:59:25;;;;;;;4.43;1.60;;;17.40;99.90;;;;;;4434270;28;657404;-65
2023/10/04 11:02:12;;;;;;;4.73;1.10;;;17.90;99.90;;;;;;4451194;28;656560;-65
2023/10/04 11:05:00;;;;;;;7.70;1.83;;;18.20;95.40;;;;;;4454344;28;657637;-65
2023/10/04 11:07:48;;;;;;;9.23;2.07;;;18.50;97.60;;;;;;4427538;28;657381;-65
2023/10/04 11:10:36;;;;;;;5.50;1.70;;;18.70;95.80;;;;;;4433458;28;658040;-65
2023/10/04 11:13:26;;;;;;;5.13;1.57;;;18.00;93.20;;;;;;4413963;28;656480;-65
2023/10/04 11:16:14;;;;;;;4.90;1.83;;;18.10;95.10;;;;;;4414263;28;657885;-65
2023/10/04 11:19:03;;;;;;;5.80;1.50;;;17.80;94.30;;;;;;4428853;28;657034;-65
2023/10/04 11:21:50;;;;;;;4.73;1.37;;;18.00;95.60;;;;;;4415342;28;656779;-65
2023/10/04 11:24:39;;;;;;;3.13;1.40;;;17.50;86.90;;;;;;4412045;28;656598;-65
2023/10/04 11:27:27;;;;;;;1.87;1.20;;;17.70;89.40;;;;;;4439071;28;658849;-65
2023/10/04 11:30:16;;;;;;;5.20;1.70;;;17.50;85.60;;;;;;4413731;28;656956;-65
2023/10/04 11:33:05;;;;;;;3.92;1.08;;;17.90;92.30;;;;;;4410947;28;656381;-65
2023/10/04 11:35:52;;;;;;;2.70;1.00;;;18.20;82.50;;;;;;4410545;28;656403;-65
2023/10/04 11:38:40;;;;;;;3.37;1.10;;;17.70;77.50;;;;;;4437484;28;657061;-65
2023/10/04 11:41:29;;;;;;;3.23;1.30;;;18.10;78.10;;;;;;4412559;28;656632;-65
2023/10/04 11:44:18;;;;;;;2.47;1.10;;;18.80;87.00;;;;;;4431894;28;657004;-65
2023/10/04 11:47:08;;;;;;;2.77;1.10;;;18.00;76.20;;;;;;4410351;28;657177;-65
2023/10/04 11:49:58;;;;;;;4.63;1.27;;;17.90;77.90;;;;;;4412140;28;657443;-65
2023/10/04 11:52:48;;;;;;;3.83;1.20;;;16.90;85.50;;;;;;4406590;28;657128;-65
2023/10/04 11:55:37;;;;;;;2.37;1.07;;;16.90;91.90;;;;;;4410574;28;658034;-65
2023/10/04 11:58:24;;;;;;;4.60;1.60;;;16.90;92.90;;;;;;4414726;28;657681;-65
2023/10/04 12:01:13;;;;;;;2.33;1.13;;;16.50;97.70;;;;;;4428514;28;657047;-65
2023/10/04 12:04:02;;;;;;;3.17;1.40;;;16.70;97.60;;;;;;4409871;28;656888;-65
2023/10/04 12:06:58;;;;;;;9.73;1.50;;;16.60;94.60;;;;;;4428505;28;657524;-65
2023/10/04 12:09:45;;;;;;;5.03;1.50;;;16.30;99.90;;;;;;4432023;28;657107;-65
2023/10/04 12:12:32;;;;;;;2.70;1.30;;;17.10;99.90;;;;;;4435753;28;656567;-65
2023/10/04 12:15:21;;;;;;;2.30;1.07;;;18.20;92.80;;;;;;4451323;28;656825;-65
2023/10/04 12:18:09;;;;;;;2.35;0.90;;;18.10;93.10;;;;;;4426166;28;656991;-65
2023/10/04 12:20:57;;;;;;;5.43;1.57;;;17.90;76.80;;;;;;4450229;28;656872;-65
2023/10/04 12:23:45;;;;;;;2.20;1.13;;;18.30;88.90;;;;;;4428637;27;657219;-65
2023/10/04 12:26:33;;;;;;;3.80;1.43;;;18.50;79.10;;;;;;4440802;27;656730;-65
2023/10/04 12:29:21;;;;;;;2.60;1.03;;;18.60;78.30;;;;;;4447973;27;657996;-64
2023/10/04 12:32:09;;;;;;;4.03;1.10;;;18.20;72.10;;;;;;4427495;28;656692;-64
2023/10/04 12:34:59;;;;;;;2.50;1.13;;;17.30;70.40;;;;;;4451859;28;657000;-65
2023/10/04 12:37:48;;;;;;;2.30;1.13;;;17.10;75.50;;;;;;4431800;28;656472;-64
2023/10/04 12:40:35;;;;;;;6.17;1.53;;;16.30;77.50;;;;;;4424594;28;657536;-65
2023/10/04 12:43:24;;;;;;;4.30;1.50;;;16.50;87.80;;;;;;4434958;28;657856;-65
2023/10/04 12:46:11;;;;;;;2.97;1.40;;;17.10;86.50;;;;;;4446392;28;656771;-65
2023/10/04 12:48:58;;;;;;;1.90;1.10;;;17.30;91.80;;;;;;4429406;28;656695;-65
2023/10/04 12:51:47;;;;;;;2.03;1.10;;;16.90;79.10;;;;;;4435999;28;656744;-65
2023/10/04 12:54:36;;;;;;;5.67;1.30;;;17.00;72.10;;;;;;4421440;28;657111;-64
2023/10/04 12:57:23;;;;;;;2.00;1.20;;;16.90;71.00;;;;;;4427874;28;656811;-65
2023/10/04 13:00:15;;;;;;;1.83;1.00;;;17.10;70.60;;;;;;4447962;28;657617;-65
2023/10/04 13:03:03;;;;;;;7.17;1.30;;;17.70;69.60;;;;;;4423444;27;658085;-65
2023/10/04 13:05:51;;;;;;;4.33;1.77;;;17.50;66.70;;;;;;4458016;28;657270;-65
2023/10/04 13:08:39;;;;;;;3.30;1.40;;;17.70;66.80;;;;;;4429704;28;656759;-65
2023/10/04 13:11:28;;;;;;;2.57;1.23;;;17.60;66.70;;;;;;4454104;28;656338;-65
2023/10/04 13:14:16;;;;;;;4.30;1.40;;;17.70;68.00;;;;;;4441528;27;658240;-65
2023/10/04 13:17:05;;;;;;;5.87;1.20;;;16.70;68.60;;;;;;4430159;28;656354;-65
2023/10/04 13:19:53;;;;;;;5.60;1.60;;;16.80;71.10;;;;;;4433160;28;656942;-65
2023/10/04 13:22:43;;;;;;;3.97;1.37;;;17.10;68.40;;;;;;4444828;28;658341;-65
2023/10/04 13:25:30;;;;;;;3.30;1.10;;;16.90;69.90;;;;;;4424861;28;657099;-65
2023/10/04 13:28:22;;;;;;;4.07;1.40;;;16.40;73.50;;;;;;4440844;28;656766;-64
2023/10/04 13:31:15;;;;;;;4.83;1.30;;;16.30;73.60;;;;;;4437358;28;658127;-65
2023/10/04 13:34:05;;;;;;;3.20;1.60;;;16.30;79.30;;;;;;4416672;28;657215;-65
2023/10/04 13:36:52;;;;;;;5.25;1.60;;;16.20;81.70;;;;;;4433124;28;656693;-64
2023/10/04 13:39:40;;;;;;;5.83;1.57;;;16.20;90.10;;;;;;4450755;28;658265;-65
2023/10/04 13:42:28;;;;;;;2.97;1.27;;;16.40;90.60;;;;;;4446029;28;656479;-65
2023/10/04 13:45:18;;;;;;;4.60;1.53;;;16.40;83.70;;;;;;4460907;28;657685;-65
2023/10/04 13:48:09;;;;;;;4.97;1.50;;;16.30;80.90;;;;;;4437034;27;658029;-65
2023/10/04 13:50:59;;;;;;;3.87;1.37;;;16.70;75.60;;;;;;4436289;27;657045;-65
2023/10/04 13:53:46;;;;;;;3.83;1.43;;;16.80;73.70;;;;;;4433278;27;656955;-64
2023/10/04 13:56:33;;;;;;;3.73;1.50;;;16.80;72.00;;;;;;4438404;28;657253;-65
2023/10/04 13:59:20;;;;;;;4.90;1.43;;;16.70;78.00;;;;;;4457858;28;658167;-65
2023/10/04 14:02:10;;;;;;;3.83;1.47;;;17.30;76.00;;;;;;4428508;28;656623;-65
2023/10/04 14:04:57;;;;;;;2.83;1.23;;;17.80;76.20;;;;;;4440160;28;656329;-65
2023/10/04 14:07:48;;;;;;;4.47;1.53;;;17.90;73.30;;;;;;4454855;28;657336;-65
2023/10/04 14:10:36;;;;;;;3.27;1.50;;;18.40;68.80;;;;;;4425165;28;657567;-65
2023/10/04 14:13:23;;;;;;;7.27;1.60;;;18.90;68.90;;;;;;4428512;28;656806;-65
2023/10/04 14:16:10;;;;;;;6.60;1.30;;;18.80;68.10;;;;;;4446282;28;657643;-65
2023/10/04 14:18:59;;;;;;;6.43;1.47;;;19.30;65.20;;;;;;4442275;28;657713;-64
2023/10/04 14:21:46;;;;;;;4.40;1.60;;;18.80;65.00;;;;;;4452562;28;657592;-64
2023/10/04 14:24:33;;;;;;;4.77;1.03;;;18.30;64.90;;;;;;4446041;28;657412;-65